Time;durP1;ratioP1;P1;durP2;ratioP2;P2;SDS_P1;SDS_P2;PMS_P1;PMS_P2;Temp;Humidity;BMP_temperature;BMP_pressure;BME280_temperature;BME280_humidity;BME280_pressure;Samples;Min_cycle;Max_cycle;Signal;HPM_P1;HPM_P2
2021/07/09 00:02:04;;;;;;;0.40;0.20;;;;;;;18.43;100.00;100632.81;5074340;28;20480;-49
2021/07/09 00:04:31;;;;;;;0.40;0.20;;;;;;;18.48;100.00;100636.97;5037051;28;20963;-48
2021/07/09 00:06:58;;;;;;;0.80;0.70;;;;;;;18.41;100.00;100632.03;5066788;28;20449;-49
2021/07/09 00:09:26;;;;;;;0.40;0.20;;;;;;;18.47;100.00;100619.09;5049290;28;20451;-51
2021/07/09 00:11:54;;;;;;;0.40;0.20;;;;;;;18.44;100.00;100623.78;5053832;28;20555;-51
2021/07/09 00:14:25;;;;;;;0.40;0.30;;;;;;;18.37;100.00;100617.91;5066355;28;21002;-51
2021/07/09 00:16:52;;;;;;;0.40;0.20;;;;;;;18.60;100.00;100616.59;5069363;28;20460;-51
2021/07/09 00:19:20;;;;;;;0.40;0.20;;;;;;;18.47;100.00;100613.72;5065656;28;20558;-51
2021/07/09 00:21:48;;;;;;;0.40;0.20;;;;;;;18.84;100.00;100620.63;5069839;28;20477;-51
2021/07/09 00:24:16;;;;;;;0.40;0.20;;;;;;;18.53;100.00;100620.59;5074370;28;20450;-51
2021/07/09 00:26:44;;;;;;;0.40;0.20;;;;;;;18.53;100.00;100617.91;5069645;28;20463;-51
2021/07/09 00:29:11;;;;;;;0.40;0.30;;;;;;;18.45;100.00;100615.63;5054231;28;20477;-50
2021/07/09 00:31:38;;;;;;;0.40;0.20;;;;;;;18.45;100.00;100615.63;5064232;28;20504;-51
2021/07/09 00:34:06;;;;;;;0.40;0.20;;;;;;;18.51;100.00;100609.91;5043444;28;20856;-51
2021/07/09 00:36:35;;;;;;;0.40;0.20;;;;;;;18.66;100.00;100613.59;5067066;28;20486;-51
2021/07/09 00:39:07;;;;;;;1.63;0.80;;;;;;;18.68;100.00;100617.06;5054119;28;20470;-51
2021/07/09 00:41:34;;;;;;;1.03;1.03;;;;;;;18.85;100.00;100613.41;5066113;28;20474;-51
2021/07/09 00:44:01;;;;;;;0.40;0.30;;;;;;;18.74;100.00;100610.44;5066495;28;20466;-52
2021/07/09 00:46:35;;;;;;;0.40;0.20;;;;;;;18.63;100.00;100617.31;5071119;28;20440;-51
2021/07/09 00:49:04;;;;;;;0.40;0.37;;;;;;;18.94;100.00;100610.19;5073971;28;20457;-51
2021/07/09 00:51:32;;;;;;;0.40;0.20;;;;;;;18.61;100.00;100605.72;5065361;28;20470;-51
2021/07/09 00:53:59;;;;;;;0.40;0.20;;;;;;;18.30;100.00;100606.59;5053000;28;20458;-51
2021/07/09 00:56:27;;;;;;;0.40;0.20;;;;;;;18.67;100.00;100604.56;5072476;28;20488;-51
2021/07/09 00:58:55;;;;;;;0.40;0.20;;;;;;;18.69;100.00;100613.41;5072749;28;20450;-51
2021/07/09 01:01:22;;;;;;;0.40;0.20;;;;;;;18.40;100.00;100616.84;5071997;28;20444;-51
2021/07/09 01:03:49;;;;;;;0.40;0.20;;;;;;;18.57;100.00;100622.16;5071764;28;20473;-51
2021/07/09 01:06:16;;;;;;;0.40;0.20;;;;;;;18.54;100.00;100625.88;5073811;28;20421;-51
2021/07/09 01:08:43;;;;;;;0.40;0.20;;;;;;;18.36;100.00;100624.19;5072138;28;20443;-51
2021/07/09 01:11:11;;;;;;;0.40;0.20;;;;;;;18.60;100.00;100624.66;5071821;28;20470;-51
2021/07/09 01:13:40;;;;;;;0.40;0.20;;;;;;;18.50;100.00;100623.44;5073280;28;20429;-51
2021/07/09 01:16:07;;;;;;;0.80;0.80;;;;;;;18.34;100.00;100624.28;5065404;28;20467;-51
2021/07/09 01:18:35;;;;;;;0.40;0.20;;;;;;;18.27;100.00;100614.84;5073446;28;20493;-51
2021/07/09 01:21:07;;;;;;;0.40;0.30;;;;;;;18.49;100.00;100619.88;5073211;28;20999;-51
2021/07/09 01:23:35;;;;;;;0.40;0.20;;;;;;;18.37;100.00;100625.09;5068693;28;20978;-51
2021/07/09 01:26:02;;;;;;;0.40;0.20;;;;;;;18.24;100.00;100614.16;5062707;28;20464;-51
2021/07/09 01:28:29;;;;;;;0.40;0.20;;;;;;;18.30;100.00;100619.16;5072490;28;20967;-52
2021/07/09 01:30:56;;;;;;;0.40;0.20;;;;;;;18.26;100.00;100617.63;5071216;28;20480;-51
2021/07/09 01:33:23;;;;;;;0.40;0.20;;;;;;;18.20;100.00;100615.25;5051541;28;20513;-52
2021/07/09 01:35:50;;;;;;;0.40;0.20;;;;;;;18.18;100.00;100618.03;5064716;28;20757;-51
2021/07/09 01:38:17;;;;;;;0.40;0.20;;;;;;;18.14;100.00;100611.06;5070713;28;20526;-51
2021/07/09 01:40:44;;;;;;;0.40;0.20;;;;;;;18.14;100.00;100618.28;5072654;28;20462;-51
2021/07/09 01:43:11;;;;;;;0.40;0.20;;;;;;;18.13;100.00;100611.16;5072192;28;20450;-51
2021/07/09 01:45:38;;;;;;;0.40;0.20;;;;;;;18.16;100.00;100616.38;5058097;28;20465;-51
2021/07/09 01:48:05;;;;;;;0.40;0.20;;;;;;;18.24;100.00;100615.00;5070989;28;20423;-51
2021/07/09 01:50:33;;;;;;;0.40;0.20;;;;;;;18.24;100.00;100614.16;5070813;28;20533;-51
2021/07/09 01:53:01;;;;;;;0.40;0.20;;;;;;;18.60;100.00;100616.59;5072155;28;20534;-51
2021/07/09 01:55:27;;;;;;;0.40;0.20;;;;;;;18.89;100.00;100614.94;5072566;28;20420;-51
2021/07/09 01:57:54;;;;;;;0.40;0.20;;;;;;;18.79;100.00;100611.94;5072172;28;20490;-51
2021/07/09 02:00:24;;;;;;;0.40;0.20;;;;;;;18.82;100.00;100611.75;5071200;28;20456;-51
2021/07/09 02:02:51;;;;;;;0.40;0.20;;;;;;;18.84;100.00;100617.06;5070656;28;20424;-51
2021/07/09 02:05:21;;;;;;;0.40;0.20;;;;;;;18.99;100.00;100602.69;5072550;28;20449;-51
2021/07/09 02:07:52;;;;;;;0.40;0.20;;;;;;;19.01;100.00;100611.53;5072194;28;20478;-52
2021/07/09 02:10:20;;;;;;;0.40;0.30;;;;;;;18.56;100.00;100602.44;5072013;28;20460;-52
2021/07/09 02:12:50;;;;;;;0.40;0.20;;;;;;;18.59;100.00;100596.00;5072379;28;20454;-52
2021/07/09 02:15:17;;;;;;;0.40;0.20;;;;;;;18.53;100.00;100599.06;5063209;28;20445;-51
2021/07/09 02:17:45;;;;;;;0.40;0.20;;;;;;;18.49;100.00;100590.25;5072085;28;20524;-51
2021/07/09 02:20:16;;;;;;;0.40;0.20;;;;;;;18.50;100.00;100596.50;5071786;28;20446;-51
2021/07/09 02:22:44;;;;;;;0.40;0.20;;;;;;;18.45;100.00;100582.44;5072288;28;20446;-51
2021/07/09 02:25:13;;;;;;;0.40;0.20;;;;;;;18.52;100.00;100595.50;5066606;28;20442;-51
2021/07/09 02:27:44;;;;;;;0.40;0.20;;;;;;;18.47;100.00;100586.78;5061886;28;20938;-51
2021/07/09 02:30:12;;;;;;;0.40;0.20;;;;;;;18.32;100.00;100590.34;5071671;28;20449;-52
2021/07/09 02:32:40;;;;;;;0.40;0.20;;;;;;;18.39;100.00;100591.75;5068366;28;20456;-51
2021/07/09 02:35:10;;;;;;;0.40;0.20;;;;;;;18.39;100.00;100589.06;5071949;28;20515;-51
2021/07/09 02:37:38;;;;;;;0.40;0.20;;;;;;;18.34;100.00;100585.75;5070774;28;20509;-51
2021/07/09 02:40:07;;;;;;;0.40;0.20;;;;;;;18.34;100.00;100583.06;5071715;28;20500;-51
2021/07/09 02:42:35;;;;;;;0.40;0.20;;;;;;;18.37;100.00;100588.28;5071659;28;20498;-51
2021/07/09 02:45:02;;;;;;;0.40;0.20;;;;;;;18.31;100.00;100584.09;5051839;28;20498;-51
2021/07/09 02:47:29;;;;;;;0.40;0.20;;;;;;;18.29;100.00;100579.75;5052134;28;20468;-51
2021/07/09 02:49:56;;;;;;;0.40;0.20;;;;;;;18.15;100.00;100579.66;5051994;28;20462;-51
2021/07/09 02:52:23;;;;;;;0.40;0.20;;;;;;;18.20;100.00;100586.50;5050267;28;20510;-51
2021/07/09 02:54:50;;;;;;;0.40;0.30;;;;;;;18.23;100.00;100588.19;5050925;28;20868;-51
2021/07/09 02:57:16;;;;;;;0.40;0.30;;;;;;;18.19;100.00;100584.78;5054931;28;20822;-51
2021/07/09 02:59:43;;;;;;;0.40;0.20;;;;;;;18.13;100.00;100576.19;5055437;28;20460;-52
2021/07/09 03:02:10;;;;;;;0.40;0.20;;;;;;;18.14;100.00;100577.91;5055450;28;20508;-51
2021/07/09 03:04:37;;;;;;;0.40;0.20;;;;;;;18.20;100.00;100572.19;5054350;28;20425;-51
2021/07/09 03:07:04;;;;;;;0.40;0.20;;;;;;;18.29;100.00;100569.84;5054873;28;20461;-51
2021/07/09 03:09:31;;;;;;;0.40;0.20;;;;;;;18.49;100.00;100574.09;5055624;28;20425;-51
2021/07/09 03:11:58;;;;;;;0.40;0.30;;;;;;;18.33;100.00;100567.84;5055295;28;20467;-51
2021/07/09 03:14:25;;;;;;;0.40;0.20;;;;;;;18.39;100.00;100563.97;5055512;28;20437;-52
2021/07/09 03:16:52;;;;;;;0.40;0.30;;;;;;;18.39;100.00;100564.84;5055281;28;20857;-51
2021/07/09 03:19:19;;;;;;;0.40;0.20;;;;;;;18.32;100.00;100569.69;5054903;28;20453;-51
2021/07/09 03:21:46;;;;;;;0.40;0.20;;;;;;;18.36;100.00;100567.69;5055755;28;20509;-51
2021/07/09 03:24:13;;;;;;;0.40;0.20;;;;;;;18.28;100.00;100570.81;5073918;28;20458;-51
2021/07/09 03:26:40;;;;;;;1.90;1.90;;;;;;;18.22;100.00;100572.97;5061945;28;20460;-51
2021/07/09 03:29:06;;;;;;;0.40;0.20;;;;;;;18.21;100.00;100574.78;5075304;28;20453;-52
2021/07/09 03:31:34;;;;;;;0.40;0.20;;;;;;;18.16;100.00;100576.00;5071325;28;20543;-49
2021/07/09 03:34:01;;;;;;;0.40;0.20;;;;;;;18.09;100.00;100580.84;5075220;28;20454;-49
2021/07/09 03:36:28;;;;;;;0.40;0.20;;;;;;;17.95;100.00;100575.34;5074640;28;20457;-50
2021/07/09 03:38:56;;;;;;;0.60;0.60;;;;;;;17.74;100.00;100582.78;5074742;28;20460;-50
2021/07/09 03:41:25;;;;;;;0.40;0.20;;;;;;;17.71;100.00;100583.81;5074817;28;20855;-49
2021/07/09 03:43:52;;;;;;;0.53;0.50;;;;;;;17.87;100.00;100574.91;5074318;28;20457;-50
2021/07/09 03:46:19;;;;;;;0.50;0.40;;;;;;;17.92;100.00;100576.41;5072149;28;20481;-50
2021/07/09 03:48:46;;;;;;;0.40;0.20;;;;;;;17.86;100.00;100579.44;5075390;28;20421;-48
2021/07/09 03:51:13;;;;;;;0.50;0.40;;;;;;;17.75;100.00;100581.81;5074377;28;20456;-49
2021/07/09 03:53:40;;;;;;;0.40;0.20;;;;;;;17.98;100.00;100578.78;5072984;28;20425;-49
2021/07/09 03:56:07;;;;;;;0.40;0.20;;;;;;;17.96;100.00;100574.44;5073585;28;20785;-48
2021/07/09 03:58:34;;;;;;;0.40;0.30;;;;;;;18.01;100.00;100573.22;5074583;28;20520;-49
2021/07/09 04:01:04;;;;;;;0.40;0.20;;;;;;;17.90;100.00;100572.06;5073258;28;20462;-50
2021/07/09 04:03:31;;;;;;;0.43;0.30;;;;;;;17.95;100.00;100578.03;5074456;28;20457;-50
2021/07/09 04:05:58;;;;;;;0.40;0.30;;;;;;;17.93;100.00;100577.25;5073298;28;20450;-49
2021/07/09 04:08:25;;;;;;;0.40;0.20;;;;;;;17.94;100.00;100577.16;5072396;28;20438;-50
2021/07/09 04:10:52;;;;;;;0.40;0.30;;;;;;;18.07;100.00;100577.38;5073362;28;20494;-49
2021/07/09 04:13:18;;;;;;;0.60;0.60;;;;;;;18.29;100.00;100577.94;5074242;28;20449;-49
2021/07/09 04:15:45;;;;;;;0.40;0.20;;;;;;;18.21;100.00;100585.56;5065781;28;20432;-51
2021/07/09 04:18:13;;;;;;;0.40;0.30;;;;;;;18.23;100.00;100585.50;5074276;28;20588;-49
2021/07/09 04:20:39;;;;;;;0.70;0.60;;;;;;;18.25;100.00;100591.66;5073079;28;20444;-49
2021/07/09 04:23:06;;;;;;;0.40;0.20;;;;;;;18.18;100.00;100591.13;5072296;28;20486;-50
2021/07/09 04:25:34;;;;;;;0.40;0.20;;;;;;;18.23;100.00;100589.06;5066112;28;20455;-49
2021/07/09 04:28:00;;;;;;;0.40;0.20;;;;;;;18.24;100.00;100601.56;5068125;28;20442;-50
2021/07/09 04:30:27;;;;;;;0.40;0.20;;;;;;;18.30;100.00;100606.59;5073933;28;20454;-50
2021/07/09 04:32:54;;;;;;;0.40;0.20;;;;;;;18.17;100.00;100607.34;5070674;28;20520;-49
2021/07/09 04:35:21;;;;;;;0.53;0.50;;;;;;;18.37;100.00;100611.66;5072528;28;20527;-50
2021/07/09 04:37:48;;;;;;;1.20;0.90;;;;;;;18.47;100.00;100613.72;5073340;28;20859;-49
2021/07/09 04:40:16;;;;;;;0.50;0.50;;;;;;;18.50;100.00;100624.34;5072360;28;20488;-49
2021/07/09 04:42:43;;;;;;;0.50;0.40;;;;;;;18.79;100.00;100619.16;5072188;28;20427;-50
2021/07/09 04:45:13;;;;;;;0.40;0.30;;;;;;;18.69;100.00;100626.88;5072216;28;20501;-50
2021/07/09 04:47:40;;;;;;;0.40;0.20;;;;;;;18.45;100.00;100629.09;5073517;28;20469;-50
2021/07/09 04:50:08;;;;;;;0.40;0.20;;;;;;;18.51;100.00;100628.75;5073647;28;20474;-49
2021/07/09 04:52:42;;;;;;;0.40;0.20;;;;;;;18.32;100.00;100628.03;5073356;28;20476;-50
2021/07/09 04:55:09;;;;;;;5.20;2.00;;;;;;;18.29;100.00;100625.50;5073177;28;20550;-49
2021/07/09 04:57:36;;;;;;;0.40;0.20;;;;;;;18.19;100.00;100619.75;5073409;28;20490;-49
2021/07/09 05:00:05;;;;;;;0.40;0.20;;;;;;;18.21;100.00;100623.22;5072270;28;20471;-51
2021/07/09 05:02:37;;;;;;;0.40;0.30;;;;;;;18.06;100.00;100624.06;5072918;28;20813;-48
2021/07/09 05:05:09;;;;;;;0.50;0.40;;;;;;;18.09;100.00;100629.28;5073191;28;20534;-51
2021/07/09 05:07:37;;;;;;;0.40;0.20;;;;;;;18.16;100.00;100625.31;5073725;28;20413;-50
2021/07/09 05:10:05;;;;;;;0.40;0.20;;;;;;;18.11;100.00;100631.91;5072809;28;20435;-51
2021/07/09 05:12:33;;;;;;;0.40;0.40;;;;;;;18.08;100.00;100629.34;5073361;28;20457;-50
2021/07/09 05:14:59;;;;;;;0.40;0.30;;;;;;;18.03;100.00;100630.50;5064407;28;20428;-50
2021/07/09 05:17:26;;;;;;;1.60;0.80;;;;;;;18.03;100.00;100633.19;5059060;28;20445;-50
2021/07/09 05:19:53;;;;;;;0.40;0.20;;;;;;;18.03;100.00;100626.94;5072212;28;20432;-51
2021/07/09 05:22:21;;;;;;;0.40;0.20;;;;;;;18.00;100.00;100629.78;5073501;28;20460;-50
2021/07/09 05:24:53;;;;;;;0.40;0.20;;;;;;;18.14;100.00;100632.59;5072504;28;20454;-50
2021/07/09 05:27:26;;;;;;;0.80;0.80;;;;;;;18.12;100.00;100637.19;5061385;28;20457;-50
2021/07/09 05:29:54;;;;;;;0.40;0.20;;;;;;;18.56;100.00;100637.44;5071866;28;20442;-51
2021/07/09 05:32:26;;;;;;;0.40;0.23;;;;;;;18.39;100.00;100640.22;5067927;28;20470;-50
2021/07/09 05:34:54;;;;;;;0.63;0.63;;;;;;;18.41;100.00;100637.44;5072929;28;20454;-50
2021/07/09 05:37:22;;;;;;;0.40;0.20;;;;;;;18.31;100.00;100647.81;5073194;28;20462;-50
2021/07/09 05:39:49;;;;;;;0.40;0.20;;;;;;;18.24;100.00;100646.44;5072700;28;20900;-50
2021/07/09 05:42:17;;;;;;;0.40;0.20;;;;;;;18.22;100.00;100648.31;5073157;28;20479;-51
2021/07/09 05:44:44;;;;;;;0.40;0.27;;;;;;;18.29;100.00;100647.91;5071475;28;20420;-50
2021/07/09 05:47:12;;;;;;;0.40;0.20;;;;;;;18.61;100.00;100656.03;5072916;28;20445;-50
2021/07/09 05:49:40;;;;;;;0.40;0.30;;;;;;;18.55;100.00;100662.63;5072763;28;20454;-50
2021/07/09 05:52:07;;;;;;;0.40;0.30;;;;;;;18.87;100.00;100665.34;5071848;28;20459;-50
2021/07/09 05:54:35;;;;;;;0.50;0.37;;;;;;;18.52;100.00;100661.94;5071286;28;20432;-50
2021/07/09 05:57:02;;;;;;;2.30;0.93;;;;;;;18.38;100.00;100662.69;5071371;28;20464;-50
2021/07/09 05:59:29;;;;;;;3.90;0.53;;;;;;;18.57;100.00;100668.78;5071174;28;20576;-50
2021/07/09 06:01:57;;;;;;;0.40;0.20;;;;;;;18.71;100.00;100673.44;5071154;28;20484;-50
2021/07/09 06:04:23;;;;;;;0.40;0.20;;;;;;;18.46;100.00;100675.72;5072494;28;20847;-51
2021/07/09 06:06:51;;;;;;;0.40;0.30;;;;;;;18.48;100.00;100668.41;5072232;28;20446;-51
2021/07/09 06:09:19;;;;;;;0.50;0.40;;;;;;;18.48;100.00;100665.72;5058106;28;20844;-51
2021/07/09 06:11:46;;;;;;;1.70;1.67;;;;;;;18.54;100.00;100665.41;5072549;28;20488;-51
2021/07/09 06:14:14;;;;;;;0.40;0.20;;;;;;;18.29;100.00;100661.38;5071186;28;20449;-51
2021/07/09 06:16:41;;;;;;;0.77;0.77;;;;;;;18.35;100.00;100668.22;5065428;28;20453;-50
2021/07/09 06:19:08;;;;;;;0.40;0.20;;;;;;;18.31;100.00;100666.66;5072425;28;20492;-51
2021/07/09 06:21:35;;;;;;;0.40;0.20;;;;;;;18.56;100.00;100666.19;5071897;28;20481;-50
2021/07/09 06:24:02;;;;;;;0.60;0.60;;;;;;;18.46;100.00;100671.19;5071056;28;20525;-50
2021/07/09 06:26:29;;;;;;;0.40;0.30;;;;;;;18.44;100.00;100683.00;5058944;28;20748;-51
2021/07/09 06:28:56;;;;;;;0.40;0.20;;;;;;;18.26;100.00;100679.50;5072228;28;20449;-50
2021/07/09 06:31:23;;;;;;;2.73;1.07;;;;;;;18.18;100.00;100676.34;5069310;28;20493;-50
2021/07/09 06:33:50;;;;;;;4.37;1.70;;;;;;;18.22;100.00;100680.59;5074871;28;20420;-51
2021/07/09 06:36:17;;;;;;;0.90;0.90;;;;;;;18.23;100.00;100685.06;5075859;28;20428;-51
2021/07/09 06:38:45;;;;;;;0.50;0.47;;;;;;;18.21;100.00;100678.88;5076206;28;20463;-50
2021/07/09 06:41:13;;;;;;;0.40;0.20;;;;;;;18.19;100.00;100683.47;5076198;28;20461;-50
2021/07/09 06:43:40;;;;;;;0.40;0.20;;;;;;;18.26;100.00;100685.75;5074910;28;20433;-51
2021/07/09 06:46:07;;;;;;;0.40;0.30;;;;;;;18.18;100.00;100685.28;5074332;28;20455;-51
2021/07/09 06:48:34;;;;;;;0.50;0.40;;;;;;;18.23;100.00;100687.75;5075883;28;20425;-51
2021/07/09 06:51:01;;;;;;;0.40;0.20;;;;;;;18.38;100.00;100683.38;5074810;28;20465;-51
2021/07/09 06:53:28;;;;;;;0.40;0.20;;;;;;;18.35;100.00;100687.06;5076399;28;20462;-51
2021/07/09 06:55:55;;;;;;;0.50;0.40;;;;;;;18.39;100.00;100685.97;5076061;28;20450;-51
2021/07/09 06:58:22;;;;;;;0.40;0.20;;;;;;;18.40;100.00;100693.09;5074391;28;20463;-51
2021/07/09 07:00:49;;;;;;;1.03;1.03;;;;;;;18.43;100.00;100692.91;5074626;28;20478;-51
2021/07/09 07:03:16;;;;;;;1.30;1.20;;;;;;;18.39;100.00;100691.34;5075493;28;20496;-51
2021/07/09 07:05:43;;;;;;;0.40;0.30;;;;;;;18.48;100.00;100687.28;5075943;28;20512;-51
2021/07/09 07:08:18;;;;;;;5.00;1.90;;;;;;;18.54;100.00;100687.81;5054829;28;20450;-52
2021/07/09 07:10:46;;;;;;;0.40;0.20;;;;;;;18.50;100.00;100694.34;5073537;28;20473;-51
2021/07/09 07:13:12;;;;;;;0.40;0.33;;;;;;;18.50;100.00;100694.34;5074538;28;20428;-51
2021/07/09 07:15:40;;;;;;;0.40;0.23;;;;;;;18.69;100.00;100696.03;5066932;28;20432;-51
2021/07/09 07:18:12;;;;;;;0.40;0.20;;;;;;;18.61;100.00;100701.78;5075549;28;20476;-52
2021/07/09 07:20:42;;;;;;;3.47;0.90;;;;;;;18.57;100.00;100708.31;5075123;28;20437;-51
2021/07/09 07:23:10;;;;;;;1.17;1.17;;;;;;;18.55;100.00;100699.47;5074900;28;20454;-51
2021/07/09 07:25:37;;;;;;;3.07;0.70;;;;;;;18.52;100.00;100700.50;5067779;28;20420;-52
2021/07/09 07:28:05;;;;;;;0.40;0.30;;;;;;;18.56;100.00;100696.69;5070049;28;20461;-51
2021/07/09 07:30:33;;;;;;;0.73;0.73;;;;;;;18.61;100.00;100699.09;5073742;28;20446;-51
2021/07/09 07:33:00;;;;;;;0.50;0.43;;;;;;;18.52;100.00;100696.94;5070754;28;20460;-50
2021/07/09 07:35:28;;;;;;;0.40;0.20;;;;;;;18.56;100.00;100695.81;5075189;28;21076;-50
2021/07/09 07:37:54;;;;;;;0.50;0.40;;;;;;;18.66;100.00;100691.69;5073814;28;20526;-50
2021/07/09 07:40:21;;;;;;;0.43;0.30;;;;;;;18.67;100.00;100693.44;5073855;28;20480;-51
2021/07/09 07:42:48;;;;;;;1.80;1.50;;;;;;;18.70;100.00;100687.88;5074130;28;20455;-51
2021/07/09 07:45:15;;;;;;;0.83;0.83;;;;;;;18.87;100.00;100697.69;5073582;28;20511;-51
2021/07/09 07:47:42;;;;;;;1.63;1.53;;;;;;;18.86;100.00;100699.50;5074623;28;20424;-51
2021/07/09 07:50:10;;;;;;;0.60;0.47;;;;;;;19.15;100.00;100691.59;5074678;28;20420;-50
2021/07/09 07:52:38;;;;;;;0.40;0.20;;;;;;;18.92;100.00;100693.78;5074114;28;20476;-51
2021/07/09 07:55:05;;;;;;;0.40;0.20;;;;;;;18.94;100.00;100691.88;5074502;28;20470;-52
2021/07/09 07:57:32;;;;;;;0.40;0.27;;;;;;;19.08;100.00;100696.47;5074642;28;20450;-51
2021/07/09 07:59:59;;;;;;;0.40;0.20;;;;;;;19.13;100.00;100702.47;5074862;28;20456;-51
2021/07/09 08:02:25;;;;;;;0.40;0.30;;;;;;;19.25;100.00;100698.19;5074034;28;20528;-51
2021/07/09 08:04:52;;;;;;;0.60;0.60;;;;;;;19.28;100.00;100699.84;5074762;28;20507;-51
2021/07/09 08:07:19;;;;;;;0.40;0.23;;;;;;;19.43;100.00;100705.19;5074626;28;20880;-53
2021/07/09 08:09:46;;;;;;;0.73;0.73;;;;;;;19.70;100.00;100701.88;5074338;28;20548;-51
2021/07/09 08:12:13;;;;;;;0.40;0.20;;;;;;;20.04;100.00;100704.28;5074095;28;20449;-51
2021/07/09 08:14:40;;;;;;;0.40;0.30;;;;;;;19.95;100.00;100702.13;5069289;28;20426;-51
2021/07/09 08:17:07;;;;;;;0.60;0.60;;;;;;;20.28;100.00;100699.16;5067720;28;20429;-51
2021/07/09 08:19:34;;;;;;;1.17;1.13;;;;;;;20.67;100.00;100695.81;5053487;28;20483;-52
2021/07/09 08:22:01;;;;;;;0.70;0.70;;;;;;;20.70;100.00;100692.09;5054002;28;20538;-50
2021/07/09 08:24:28;;;;;;;0.40;0.30;;;;;;;20.65;100.00;100689.66;5056605;28;20972;-50
2021/07/09 08:26:54;;;;;;;0.50;0.40;;;;;;;20.56;100.00;100692.06;5072328;28;20870;-51
2021/07/09 08:29:24;;;;;;;0.53;0.40;;;;;;;20.68;100.00;100694.84;5073926;28;20828;-51
2021/07/09 08:31:53;;;;;;;2.70;1.13;;;;;;;21.05;100.00;100695.19;5070931;28;20890;-51
2021/07/09 08:34:20;;;;;;;1.60;0.87;;;;;;;21.19;99.59;100696.97;5073925;28;20560;-51
2021/07/09 08:36:46;;;;;;;1.17;0.83;;;;;;;21.28;98.58;100694.56;5073482;28;20450;-51
2021/07/09 08:39:15;;;;;;;0.40;0.20;;;;;;;21.30;99.32;100694.47;5073354;28;20829;-51
2021/07/09 08:41:45;;;;;;;0.50;0.50;;;;;;;21.50;97.47;100699.38;5073243;28;20853;-52
2021/07/09 08:44:13;;;;;;;3.53;3.33;;;;;;;21.42;97.27;100695.50;5073322;28;20774;-51
2021/07/09 08:46:41;;;;;;;0.93;0.93;;;;;;;21.64;99.03;100694.88;5073361;28;20439;-50
2021/07/09 08:49:08;;;;;;;0.67;0.67;;;;;;;21.46;98.39;100691.59;5073354;28;20801;-51
2021/07/09 08:51:35;;;;;;;0.43;0.40;;;;;;;22.09;95.44;100680.06;5073319;28;20522;-51
2021/07/09 08:54:02;;;;;;;2.60;2.43;;;;;;;22.27;91.51;100684.19;5063634;28;20421;-51
2021/07/09 08:56:29;;;;;;;0.63;0.63;;;;;;;22.16;93.34;100678.66;5073504;28;20420;-52
2021/07/09 08:58:55;;;;;;;1.07;0.73;;;;;;;22.64;93.61;100681.53;5073055;28;20494;-51
2021/07/09 09:01:22;;;;;;;2.40;1.43;;;;;;;22.22;89.73;100680.06;5073443;28;20467;-51
2021/07/09 09:04:02;;;;;;;0.40;0.30;;;;;;;22.38;90.17;100683.41;5072876;28;20515;-51
2021/07/09 09:06:29;;;;;;;2.10;2.00;;;;;;;22.64;90.22;100678.84;5069098;28;20500;-51
2021/07/09 09:08:56;;;;;;;2.67;2.17;;;;;;;22.82;88.66;100687.47;5057943;28;20446;-51
2021/07/09 09:11:22;;;;;;;9.00;1.23;;;;;;;22.91;88.68;100684.97;5072980;28;20476;-52
2021/07/09 09:13:49;;;;;;;0.50;0.37;;;;;;;22.38;88.89;100681.56;5073012;28;20420;-51
2021/07/09 09:16:16;;;;;;;0.40;0.30;;;;;;;22.57;89.89;100683.81;5072893;28;20503;-51
2021/07/09 09:18:48;;;;;;;1.60;1.50;;;;;;;22.59;89.33;100691.84;5072564;28;20464;-51
2021/07/09 09:21:19;;;;;;;1.23;1.23;;;;;;;22.75;89.88;100690.63;5072713;28;20466;-51
2021/07/09 09:23:51;;;;;;;0.70;0.70;;;;;;;22.28;87.75;100685.03;5070038;28;20413;-52
2021/07/09 09:26:41;;;;;;;2.10;0.80;;;;;;;22.05;89.00;100694.75;5059142;28;20984;-51
2021/07/09 09:29:14;;;;;;;0.40;0.30;;;;;;;22.34;89.37;100693.63;5072751;28;20440;-52
2021/07/09 09:31:41;;;;;;;0.63;0.63;;;;;;;22.52;86.83;100693.25;5068826;28;20448;-51
2021/07/09 09:34:08;;;;;;;0.50;0.40;;;;;;;22.73;86.77;100697.13;5072666;28;20454;-51
2021/07/09 09:36:35;;;;;;;0.50;0.50;;;;;;;22.28;85.88;100693.16;5072580;28;20477;-50
2021/07/09 09:39:03;;;;;;;0.97;0.97;;;;;;;22.54;85.55;100700.31;5072031;28;20486;-50
2021/07/09 09:41:30;;;;;;;0.60;0.60;;;;;;;22.42;87.27;100703.88;5072160;28;20982;-51
2021/07/09 09:44:14;;;;;;;0.40;0.20;;;;;;;22.44;88.77;100696.50;5072511;28;20484;-51
2021/07/09 09:46:40;;;;;;;0.73;0.73;;;;;;;22.52;86.67;100702.25;5072450;28;20462;-52
2021/07/09 09:49:16;;;;;;;0.40;0.27;;;;;;;22.39;88.48;100696.84;5072312;28;20450;-51
2021/07/09 09:51:42;;;;;;;0.43;0.30;;;;;;;22.73;87.64;100702.53;5072059;28;20473;-51
2021/07/09 09:54:10;;;;;;;0.40;0.20;;;;;;;23.03;85.88;100694.06;5061955;28;20454;-51
2021/07/09 09:56:47;;;;;;;0.60;0.60;;;;;;;22.77;87.49;100694.09;5072143;28;20827;-51
2021/07/09 09:59:22;;;;;;;0.50;0.30;;;;;;;22.73;85.09;100683.56;5072080;28;20484;-50
2021/07/09 10:01:56;;;;;;;0.53;0.50;;;;;;;23.02;84.21;100684.16;5072376;28;20444;-51
2021/07/09 10:04:25;;;;;;;0.93;0.93;;;;;;;23.27;82.83;100684.06;5071784;28;20937;-51
2021/07/09 10:06:53;;;;;;;1.60;1.50;;;;;;;22.98;84.98;100679.97;5071318;28;20428;-51
2021/07/09 10:09:22;;;;;;;0.50;0.30;;;;;;;23.13;83.61;100684.25;5071886;28;20450;-51
2021/07/09 10:11:49;;;;;;;0.87;0.60;;;;;;;23.31;80.85;100687.44;5071803;28;20474;-52
2021/07/09 10:14:21;;;;;;;2.93;2.60;;;;;;;23.78;81.13;100683.84;5072391;28;20473;-51
2021/07/09 10:16:59;;;;;;;0.60;0.57;;;;;;;23.92;79.11;100685.47;5071810;28;20932;-51
2021/07/09 10:19:39;;;;;;;0.40;0.20;;;;;;;23.88;78.68;100682.16;5071607;28;20510;-51
2021/07/09 10:22:26;;;;;;;17.47;4.10;;;;;;;23.67;80.95;100682.94;5059790;28;20448;-51
2021/07/09 10:24:54;;;;;;;0.40;0.30;;;;;;;23.67;80.37;100680.22;5067531;28;20476;-51
2021/07/09 10:27:25;;;;;;;0.70;0.50;;;;;;;23.60;78.78;100680.69;5060154;28;20446;-52
2021/07/09 10:29:55;;;;;;;1.40;1.40;;;;;;;23.20;83.04;100673.81;5071629;28;20902;-50
2021/07/09 10:32:43;;;;;;;0.70;0.70;;;;;;;23.26;82.94;100674.19;5068735;28;20474;-52
2021/07/09 10:35:30;;;;;;;1.17;0.70;;;;;;;23.14;78.55;100669.69;5071600;28;20504;-51
2021/07/09 10:38:09;;;;;;;0.50;0.50;;;;;;;23.15;79.70;100676.84;5071443;28;20428;-51
2021/07/09 10:40:36;;;;;;;2.10;1.33;;;;;;;23.35;79.57;100683.50;5071572;28;20534;-51
2021/07/09 10:43:04;;;;;;;0.43;0.30;;;;;;;23.28;79.22;100684.94;5072095;28;20503;-51
2021/07/09 10:45:31;;;;;;;0.83;0.70;;;;;;;23.09;80.75;100682.75;5071527;28;20439;-51
2021/07/09 10:48:08;;;;;;;0.87;0.83;;;;;;;23.33;79.57;100670.06;5072805;28;20420;-51
2021/07/09 10:50:54;;;;;;;1.80;0.97;;;;;;;23.60;78.80;100675.25;5072545;28;20441;-52
2021/07/09 10:53:25;;;;;;;2.23;0.70;;;;;;;23.54;78.84;100672.09;5064819;28;20925;-51
2021/07/09 10:56:15;;;;;;;1.33;1.33;;;;;;;23.58;78.85;100679.09;5066928;28;20458;-51
2021/07/09 10:58:47;;;;;;;0.40;0.30;;;;;;;23.88;77.10;100684.00;5071298;28;20974;-51
2021/07/09 11:01:14;;;;;;;0.53;0.50;;;;;;;23.94;77.69;100686.22;5071696;28;20465;-51
2021/07/09 11:03:50;;;;;;;0.60;0.60;;;;;;;23.86;76.68;100675.97;5072877;28;20428;-53
2021/07/09 11:06:33;;;;;;;0.97;0.97;;;;;;;23.63;75.04;100677.75;5072079;28;20453;-52
2021/07/09 11:09:05;;;;;;;0.40;0.20;;;;;;;24.08;75.99;100687.84;5071416;28;20939;-52
2021/07/09 11:11:43;;;;;;;4.97;1.17;;;;;;;23.70;78.61;100686.25;5071714;28;20477;-52
2021/07/09 11:14:17;;;;;;;0.40;0.20;;;;;;;23.96;76.58;100688.81;5070578;28;20453;-52
2021/07/09 11:16:59;;;;;;;0.80;0.80;;;;;;;23.89;77.45;100680.28;5072349;28;20430;-52
2021/07/09 11:19:33;;;;;;;1.70;1.60;;;;;;;23.61;80.81;100684.28;5075419;28;20484;-52
2021/07/09 11:22:07;;;;;;;0.50;0.40;;;;;;;23.83;80.52;100684.31;5074910;28;20527;-52
2021/07/09 11:24:53;;;;;;;0.50;0.30;;;;;;;23.80;79.43;100686.44;5072316;28;20449;-51
2021/07/09 11:27:25;;;;;;;0.50;0.43;;;;;;;23.69;80.98;100680.94;5064323;28;20447;-53